sensor_id;sensor_type;location;lat;lon;timestamp;pressure;altitude;pressure_sealevel;temperature;humidity
30338;BME280;17143;51.888;5.408;2023-05-23T00:11:44;101733.16;;;16.84;100.00
30338;BME280;17143;51.888;5.408;2023-05-23T00:26:46;101736.09;;;16.71;100.00
30338;BME280;17143;51.888;5.408;2023-05-23T00:41:49;101742.38;;;16.54;100.00
30338;BME280;17143;51.888;5.408;2023-05-23T00:56:52;101760.28;;;16.43;100.00
30338;BME280;17143;51.888;5.408;2023-05-23T01:12:00;101773.47;;;16.06;100.00
30338;BME280;17143;51.888;5.408;2023-05-23T01:27:08;101767.84;;;15.99;100.00
30338;BME280;17143;51.888;5.408;2023-05-23T01:42:16;101782.03;;;16.02;100.00
30338;BME280;17143;51.888;5.408;2023-05-23T01:57:18;101774.25;;;15.86;100.00
30338;BME280;17143;51.888;5.408;2023-05-23T02:12:21;101800.00;;;15.93;100.00
30338;BME280;17143;51.888;5.408;2023-05-23T02:27:23;101786.88;;;15.75;100.00
30338;BME280;17143;51.888;5.408;2023-05-23T02:42:25;101796.34;;;15.72;100.00
30338;BME280;17143;51.888;5.408;2023-05-23T02:57:27;101806.09;;;15.57;100.00
30338;BME280;17143;51.888;5.408;2023-05-23T03:12:29;101805.22;;;15.56;100.00
30338;BME280;17143;51.888;5.408;2023-05-23T03:27:31;101813.16;;;15.58;100.00
30338;BME280;17143;51.888;5.408;2023-05-23T03:42:33;101819.91;;;15.53;100.00
30338;BME280;17143;51.888;5.408;2023-05-23T03:57:36;101824.84;;;15.47;100.00
30338;BME280;17143;51.888;5.408;2023-05-23T04:12:38;101843.56;;;15.37;100.00
30338;BME280;17143;51.888;5.408;2023-05-23T04:27:43;101869.03;;;15.21;100.00
30338;BME280;17143;51.888;5.408;2023-05-23T04:42:46;101884.31;;;15.12;100.00
30338;BME280;17143;51.888;5.408;2023-05-23T04:58:14;101897.44;;;14.96;100.00
30338;BME280;17143;51.888;5.408;2023-05-23T05:13:17;101910.25;;;14.90;100.00
30338;BME280;17143;51.888;5.408;2023-05-23T05:28:23;101942.47;;;14.72;100.00
30338;BME280;17143;51.888;5.408;2023-05-23T05:43:27;101959.56;;;14.65;100.00
30338;BME280;17143;51.888;5.408;2023-05-23T05:58:29;101987.69;;;14.37;100.00
30338;BME280;17143;51.888;5.408;2023-05-23T06:13:35;101998.00;;;14.34;100.00
30338;BME280;17143;51.888;5.408;2023-05-23T06:28:38;102001.75;;;14.84;96.52
30338;BME280;17143;51.888;5.408;2023-05-23T06:43:40;102012.91;;;14.96;90.65
30338;BME280;17143;51.888;5.408;2023-05-23T06:58:50;102034.03;;;14.83;92.53
30338;BME280;17143;51.888;5.408;2023-05-23T07:13:52;102037.03;;;14.75;92.26
30338;BME280;17143;51.888;5.408;2023-05-23T07:29:09;102056.13;;;14.72;93.99
30338;BME280;17143;51.888;5.408;2023-05-23T07:44:12;102060.22;;;14.67;95.29
30338;BME280;17143;51.888;5.408;2023-05-23T07:59:14;102077.34;;;14.46;98.21
30338;BME280;17143;51.888;5.408;2023-05-23T08:14:18;102083.44;;;15.37;90.93
30338;BME280;17143;51.888;5.408;2023-05-23T08:29:28;102090.84;;;15.60;85.12
30338;BME280;17143;51.888;5.408;2023-05-23T08:44:31;102098.00;;;15.79;82.91
30338;BME280;17143;51.888;5.408;2023-05-23T08:59:37;102112.94;;;15.64;83.51
30338;BME280;17143;51.888;5.408;2023-05-23T09:14:40;102129.16;;;16.05;77.29
30338;BME280;17143;51.888;5.408;2023-05-23T09:29:44;102126.34;;;16.86;71.85
30338;BME280;17143;51.888;5.408;2023-05-23T09:44:46;102133.88;;;16.96;70.92
30338;BME280;17143;51.888;5.408;2023-05-23T09:59:51;102130.56;;;18.12;64.19
30338;BME280;17143;51.888;5.408;2023-05-23T10:14:56;102142.22;;;18.77;61.73
30338;BME280;17143;51.888;5.408;2023-05-23T10:29:59;102158.06;;;19.19;57.72
30338;BME280;17143;51.888;5.408;2023-05-23T10:45:18;102148.69;;;18.63;59.02
30338;BME280;17143;51.888;5.408;2023-05-23T11:00:22;102169.28;;;18.51;60.13
30338;BME280;17143;51.888;5.408;2023-05-23T11:15:24;102158.75;;;18.93;58.75
30338;BME280;17143;51.888;5.408;2023-05-23T11:30:27;102155.91;;;18.67;56.22
30338;BME280;17143;51.888;5.408;2023-05-23T11:45:30;102179.53;;;19.49;53.10
30338;BME280;17143;51.888;5.408;2023-05-23T12:00:32;102175.34;;;18.69;54.44
30338;BME280;17143;51.888;5.408;2023-05-23T12:15:34;102187.47;;;19.06;54.67
30338;BME280;17143;51.888;5.408;2023-05-23T12:30:42;102181.88;;;19.63;51.13
30338;BME280;17143;51.888;5.408;2023-05-23T12:45:44;102196.53;;;19.77;50.62
30338;BME280;17143;51.888;5.408;2023-05-23T13:00:46;102189.47;;;19.78;49.53
30338;BME280;17143;51.888;5.408;2023-05-23T13:15:49;102189.97;;;19.25;54.18
30338;BME280;17143;51.888;5.408;2023-05-23T13:30:51;102193.06;;;19.35;51.73
30338;BME280;17143;51.888;5.408;2023-05-23T13:45:53;102200.94;;;19.34;51.70
30338;BME280;17143;51.888;5.408;2023-05-23T14:00:55;102202.41;;;19.27;50.77
30338;BME280;17143;51.888;5.408;2023-05-23T14:15:58;102200.91;;;19.12;48.00
30338;BME280;17143;51.888;5.408;2023-05-23T14:31:00;102200.31;;;19.84;50.92
30338;BME280;17143;51.888;5.408;2023-05-23T14:46:02;102203.41;;;19.29;48.00
30338;BME280;17143;51.888;5.408;2023-05-23T15:01:04;102201.38;;;19.02;47.68
30338;BME280;17143;51.888;5.408;2023-05-23T15:16:07;102199.28;;;18.53;49.30
30338;BME280;17143;51.888;5.408;2023-05-23T15:31:09;102211.91;;;18.60;49.94
30338;BME280;17143;51.888;5.408;2023-05-23T15:46:11;102213.69;;;18.61;50.71
30338;BME280;17143;51.888;5.408;2023-05-23T16:01:14;102217.63;;;18.31;51.14
30338;BME280;17143;51.888;5.408;2023-05-23T16:16:16;102237.97;;;17.78;49.12
30338;BME280;17143;51.888;5.408;2023-05-23T16:31:24;102240.13;;;17.67;46.59
30338;BME280;17143;51.888;5.408;2023-05-23T16:46:26;102217.84;;;17.25;50.10
30338;BME280;17143;51.888;5.408;2023-05-23T17:01:29;102219.47;;;17.05;50.46
30338;BME280;17143;51.888;5.408;2023-05-23T17:16:31;102227.72;;;16.78;52.34
30338;BME280;17143;51.888;5.408;2023-05-23T17:31:34;102221.19;;;16.37;53.59
30338;BME280;17143;51.888;5.408;2023-05-23T17:46:36;102235.16;;;15.88;55.41
30338;BME280;17143;51.888;5.408;2023-05-23T18:01:39;102245.78;;;15.59;56.67
30338;BME280;17143;51.888;5.408;2023-05-23T18:16:41;102256.50;;;15.33;60.35
30338;BME280;17143;51.888;5.408;2023-05-23T18:31:45;102262.09;;;15.09;60.31
30338;BME280;17143;51.888;5.408;2023-05-23T18:46:48;102264.13;;;14.84;62.64
30338;BME280;17143;51.888;5.408;2023-05-23T19:01:50;102281.00;;;14.45;64.66
30338;BME280;17143;51.888;5.408;2023-05-23T19:16:53;102280.94;;;14.18;65.58
30338;BME280;17143;51.888;5.408;2023-05-23T19:31:57;102293.13;;;13.89;67.27
30338;BME280;17143;51.888;5.408;2023-05-23T19:46:59;102299.22;;;13.62;68.91
30338;BME280;17143;51.888;5.408;2023-05-23T20:02:03;102323.19;;;13.42;70.70
30338;BME280;17143;51.888;5.408;2023-05-23T20:17:05;102355.94;;;13.11;72.14
30338;BME280;17143;51.888;5.408;2023-05-23T20:32:07;102342.41;;;12.92;75.32
30338;BME280;17143;51.888;5.408;2023-05-23T20:47:10;102332.25;;;12.71;75.66
30338;BME280;17143;51.888;5.408;2023-05-23T21:02:12;102323.31;;;12.43;76.01
30338;BME280;17143;51.888;5.408;2023-05-23T21:17:14;102336.09;;;12.27;78.11
30338;BME280;17143;51.888;5.408;2023-05-23T21:32:17;102336.94;;;12.03;80.23
30338;BME280;17143;51.888;5.408;2023-05-23T21:47:19;102335.03;;;11.89;82.04
30338;BME280;17143;51.888;5.408;2023-05-23T22:02:21;102340.06;;;11.86;81.77
30338;BME280;17143;51.888;5.408;2023-05-23T22:17:23;102335.28;;;11.69;83.23
30338;BME280;17143;51.888;5.408;2023-05-23T22:32:25;102332.53;;;11.55;83.73
30338;BME280;17143;51.888;5.408;2023-05-23T22:47:27;102346.63;;;11.34;83.90
30338;BME280;17143;51.888;5.408;2023-05-23T23:02:29;102352.03;;;11.14;85.10
30338;BME280;17143;51.888;5.408;2023-05-23T23:17:31;102342.25;;;11.00;85.91
30338;BME280;17143;51.888;5.408;2023-05-23T23:32:34;102346.31;;;10.85;86.75
30338;BME280;17143;51.888;5.408;2023-05-23T23:47:36;102335.16;;;10.64;88.46
